Time;durP1;ratioP1;P1;durP2;ratioP2;P2;SDS_P1;SDS_P2;PMS_P1;PMS_P2;Temp;Humidity;BMP_temperature;BMP_pressure;BME280_temperature;BME280_humidity;BME280_pressure;Samples;Min_cycle;Max_cycle;Signal;HPM_P1;HPM_P2
2022/12/25 00:00:34;;;;;;;;;;;17.40;88.90;;;;;;5096357;28;19907;-42
2022/12/25 00:03:00;;;;;;;;;;;17.40;88.90;;;;;;5114295;28;20355;-42
2022/12/25 00:05:25;;;;;;;;;;;17.40;88.90;;;;;;5114542;28;20342;-44
2022/12/25 00:07:51;;;;;;;;;;;17.40;88.80;;;;;;5114244;28;19911;-42
2022/12/25 00:10:17;;;;;;;;;;;17.40;88.80;;;;;;5114246;28;20021;-43
2022/12/25 00:12:42;;;;;;;;;;;17.40;88.80;;;;;;5114218;28;19953;-43
2022/12/25 00:15:08;;;;;;;;;;;17.40;88.70;;;;;;5114167;28;20011;-43
2022/12/25 00:17:33;;;;;;;;;;;17.40;88.70;;;;;;5114204;28;19915;-44
2022/12/25 00:19:59;;;;;;;;;;;17.40;88.80;;;;;;5114122;28;19922;-43
2022/12/25 00:22:24;;;;;;;;;;;17.40;88.80;;;;;;5114157;28;19985;-43
2022/12/25 00:24:50;;;;;;;;;;;17.40;88.70;;;;;;5114167;28;19998;-46
2022/12/25 00:27:15;;;;;;;;;;;17.40;88.70;;;;;;5114439;28;19981;-43
2022/12/25 00:29:41;;;;;;;;;;;17.40;88.80;;;;;;5114704;28;20342;-44
2022/12/25 00:32:07;;;;;;;;;;;17.40;88.70;;;;;;5114262;28;19957;-43
2022/12/25 00:34:32;;;;;;;;;;;17.50;88.80;;;;;;5114137;28;19916;-43
2022/12/25 00:36:58;;;;;;;;;;;17.50;88.80;;;;;;5113956;28;19908;-43
2022/12/25 00:39:23;;;;;;;;;;;17.50;88.70;;;;;;5114325;28;19915;-42
2022/12/25 00:44:33;;;;;;;;;;;17.50;88.70;;;;;;5114309;28;19915;-47
2022/12/25 00:46:58;;;;;;;;;;;17.40;88.60;;;;;;5113962;28;19908;-43
2022/12/25 00:49:24;;;;;;;;;;;17.40;88.70;;;;;;5113914;28;19908;-44
2022/12/25 00:51:50;;;;;;;;;;;17.40;88.70;;;;;;5114085;28;20364;-44
2022/12/25 00:54:15;;;;;;;;;;;17.40;88.60;;;;;;5114108;28;19916;-43
2022/12/25 00:56:41;;;;;;;;;;;17.50;88.80;;;;;;5095833;28;20257;-46
2022/12/25 00:59:06;;;;;;;;;;;17.40;88.70;;;;;;5114110;28;19908;-46
2022/12/25 01:01:32;;;;;;;;;;;17.40;88.70;;;;;;5114075;28;19914;-42
2022/12/25 01:03:57;;;;;;;;;;;17.40;88.60;;;;;;5114517;28;19908;-45
2022/12/25 01:06:23;;;;;;;;;;;17.40;88.70;;;;;;5117396;28;19908;-42
2022/12/25 01:11:32;;;;;;;;;;;17.40;88.70;;;;;;5117591;28;19961;-43
2022/12/25 01:13:58;;;;;;;;;;;17.40;88.70;;;;;;5117316;28;20324;-44
2022/12/25 01:16:23;;;;;;;;;;;17.40;88.70;;;;;;5117574;28;19908;-42
2022/12/25 01:18:49;;;;;;;;;;;17.40;88.80;;;;;;5117524;28;19953;-46
2022/12/25 01:21:15;;;;;;;;;;;17.40;88.60;;;;;;5117379;28;19908;-45
2022/12/25 01:23:41;;;;;;;;;;;17.40;88.70;;;;;;5117451;28;19907;-42
2022/12/25 01:26:08;;;;;;;;;;;17.40;88.70;;;;;;5117098;28;20394;-43
2022/12/25 01:28:33;;;;;;;;;;;17.40;88.70;;;;;;5117355;28;19908;-42
2022/12/25 01:30:59;;;;;;;;;;;17.40;88.70;;;;;;5116922;28;20381;-43
2022/12/25 01:33:24;;;;;;;;;;;17.40;88.60;;;;;;5116935;28;19912;-43
2022/12/25 01:35:50;;;;;;;;;;;17.40;88.70;;;;;;5117499;28;20003;-43
2022/12/25 01:38:15;;;;;;;;;;;17.50;88.70;;;;;;5117080;28;19924;-42
2022/12/25 01:40:41;;;;;;;;;;;17.40;89.10;;;;;;5117057;28;19947;-44
2022/12/25 01:43:23;;;;;;;;;;;17.40;88.70;;;;;;5116773;28;19908;-42
2022/12/25 01:45:51;;;;;;;;;;;17.40;88.70;;;;;;5116719;28;20255;-43
2022/12/25 01:48:31;;;;;;;;;;;17.40;88.70;;;;;;5116909;28;20326;-44
2022/12/25 01:51:02;;;;;;;;;;;17.40;88.60;;;;;;5116886;28;19946;-42
2022/12/25 01:53:28;;;;;;;;;;;17.40;88.80;;;;;;5116893;28;20366;-43
2022/12/25 01:55:57;;;;;;;;;;;17.40;88.70;;;;;;5116568;28;20006;-46
2022/12/25 01:58:22;;;;;;;;;;;17.40;88.70;;;;;;5116633;28;19912;-44
2022/12/25 02:00:49;;;;;;;;;;;17.40;88.70;;;;;;5116385;28;19908;-42
2022/12/25 02:03:15;;;;;;;;;;;17.40;88.70;;;;;;5116671;28;19951;-43
2022/12/25 02:05:41;;;;;;;;;;;17.40;88.70;;;;;;5116369;28;20297;-44
2022/12/25 02:08:09;;;;;;;;;;;17.40;88.70;;;;;;5116286;28;20362;-42
2022/12/25 02:10:34;;;;;;;;;;;17.40;88.70;;;;;;5116570;28;19907;-43
2022/12/25 02:13:00;;;;;;;;;;;17.40;88.70;;;;;;5116421;28;19923;-42
2022/12/25 02:15:28;;;;;;;;;;;17.40;88.60;;;;;;5116114;28;19926;-43
2022/12/25 02:18:06;;;;;;;;;;;17.40;88.70;;;;;;5116476;28;19915;-43
2022/12/25 02:20:34;;;;;;;;;;;17.40;88.70;;;;;;5116810;28;19914;-43
2022/12/25 02:23:18;;;;;;;;;;;17.40;88.70;;;;;;5115985;28;19908;-42
2022/12/25 02:25:46;;;;;;;;;;;17.40;88.60;;;;;;5115953;28;19908;-45
2022/12/25 02:28:15;;;;;;;;;;;17.40;88.60;;;;;;5116213;28;19907;-43
2022/12/25 02:30:48;;;;;;;;;;;17.40;88.60;;;;;;5116098;28;19907;-43
2022/12/25 02:36:04;;;;;;;;;;;17.50;88.60;;;;;;5115933;28;19930;-44
2022/12/25 02:38:32;;;;;;;;;;;17.50;88.60;;;;;;5115661;28;19920;-43
2022/12/25 02:41:00;;;;;;;;;;;17.50;88.60;;;;;;5115947;28;19939;-44
2022/12/25 03:08:52;;;;;;;;;;;17.50;88.40;;;;;;5115186;28;20300;-43
2022/12/25 03:11:29;;;;;;;;;;;17.50;88.30;;;;;;5115229;28;19916;-44
2022/12/25 03:16:49;;;;;;;;;;;17.50;88.30;;;;;;5115278;28;19935;-45
2022/12/25 03:16:51;;;;;;;;;;;17.50;88.80;;;;;;5114910;28;20431;-45
2022/12/25 03:27:32;;;;;;;;;;;17.50;88.30;;;;;;5114506;28;19938;-42
2022/12/25 03:32:47;;;;;;;;;;;17.50;88.30;;;;;;5114744;28;19949;-44
2022/12/25 03:35:29;;;;;;;;;;;17.50;88.30;;;;;;5115004;28;19998;-42
2022/12/25 03:47:19;;;;;;;;;;;17.50;88.40;;;;;;5114833;28;20004;-45
2022/12/25 04:36:20;;;;;;;;;;;17.50;88.10;;;;;;5114383;28;20282;-44
2022/12/25 04:38:46;;;;;;;;;;;17.50;88.10;;;;;;5113914;28;19919;-44
2022/12/25 04:41:12;;;;;;;;;;;17.50;88.10;;;;;;5118294;28;19908;-44
2022/12/25 04:43:37;;;;;;;;;;;17.50;88.10;;;;;;5117920;28;19907;-43
2022/12/25 04:46:03;;;;;;;;;;;17.50;88.10;;;;;;5099859;28;19908;-44
2022/12/25 04:48:31;;;;;;;;;;;17.50;88.10;;;;;;5117809;28;19943;-45
2022/12/25 04:50:56;;;;;;;;;;;17.50;88.10;;;;;;5117842;28;20449;-43
2022/12/25 04:53:22;;;;;;;;;;;17.50;88.10;;;;;;5117956;28;19995;-43
2022/12/25 04:55:47;;;;;;;;;;;17.50;88.00;;;;;;5118157;28;19908;-42
2022/12/25 04:58:13;;;;;;;;;;;17.50;88.00;;;;;;5117854;28;19908;-43
2022/12/25 05:00:38;;;;;;;;;;;17.50;88.00;;;;;;5117786;28;19966;-42
2022/12/25 05:03:04;;;;;;;;;;;17.50;88.10;;;;;;5117580;28;20366;-42
2022/12/25 05:05:29;;;;;;;;;;;17.50;88.00;;;;;;5117758;28;19955;-44
2022/12/25 05:07:55;;;;;;;;;;;17.50;88.00;;;;;;5117731;28;19954;-42
2022/12/25 05:10:21;;;;;;;;;;;17.50;88.00;;;;;;5117410;28;20266;-42
2022/12/25 05:12:46;;;;;;;;;;;17.50;88.00;;;;;;5117291;28;19938;-43
2022/12/25 05:15:12;;;;;;;;;;;17.50;88.00;;;;;;5117828;28;19937;-43
2022/12/25 05:17:37;;;;;;;;;;;17.50;88.00;;;;;;5117211;28;19915;-44
2022/12/25 05:20:04;;;;;;;;;;;17.50;88.00;;;;;;5117229;28;19976;-43
2022/12/25 05:22:29;;;;;;;;;;;17.50;88.00;;;;;;5117073;28;19907;-42
2022/12/25 05:24:55;;;;;;;;;;;17.50;88.00;;;;;;5099156;28;19919;-45
2022/12/25 05:27:20;;;;;;;;;;;17.50;88.00;;;;;;5117361;28;19915;-43
2022/12/25 05:29:46;;;;;;;;;;;17.50;88.00;;;;;;5117706;28;19918;-44
2022/12/25 05:32:11;;;;;;;;;;;17.50;88.00;;;;;;5117213;28;19919;-43
2022/12/25 05:34:37;;;;;;;;;;;17.50;88.00;;;;;;5117314;28;19912;-43
2022/12/25 05:37:02;;;;;;;;;;;17.50;88.10;;;;;;5116901;28;20342;-44
2022/12/25 05:39:28;;;;;;;;;;;17.50;88.00;;;;;;5116872;28;20381;-43
2022/12/25 05:41:53;;;;;;;;;;;17.50;88.00;;;;;;5116723;28;19990;-42
2022/12/25 05:44:18;;;;;;;;;;;17.50;87.90;;;;;;5116670;28;19908;-42
2022/12/25 05:46:44;;;;;;;;;;;17.50;88.00;;;;;;5116940;28;19923;-47
2022/12/25 05:49:09;;;;;;;;;;;17.50;88.00;;;;;;5116942;28;20266;-50
2022/12/25 05:51:35;;;;;;;;;;;17.50;87.90;;;;;;5116041;28;19915;-44
2022/12/25 05:54:01;;;;;;;;;;;17.50;87.90;;;;;;5116554;28;19911;-43
2022/12/25 05:56:26;;;;;;;;;;;17.50;87.90;;;;;;5116587;28;19908;-44
2022/12/25 05:58:52;;;;;;;;;;;17.50;87.90;;;;;;5116718;28;19914;-45
2022/12/25 06:01:20;;;;;;;;;;;17.50;87.90;;;;;;5116393;28;19908;-43
2022/12/25 06:03:45;;;;;;;;;;;17.50;87.90;;;;;;5116339;28;19939;-44
2022/12/25 06:06:11;;;;;;;;;;;17.50;87.90;;;;;;5116254;28;19973;-44
2022/12/25 06:08:36;;;;;;;;;;;17.50;87.90;;;;;;5116606;28;19915;-43
2022/12/25 06:11:03;;;;;;;;;;;17.50;87.80;;;;;;5116468;28;19908;-44
2022/12/25 06:13:29;;;;;;;;;;;17.50;87.80;;;;;;5116358;28;20354;-42
2022/12/25 06:15:54;;;;;;;;;;;17.50;87.80;;;;;;5116436;28;19915;-42
2022/12/25 06:18:20;;;;;;;;;;;17.50;87.80;;;;;;5116096;28;19908;-44
2022/12/25 06:20:45;;;;;;;;;;;17.50;87.80;;;;;;5116298;28;19994;-43
2022/12/25 06:23:11;;;;;;;;;;;17.50;87.80;;;;;;5116039;28;19961;-43
2022/12/25 06:25:37;;;;;;;;;;;17.50;87.80;;;;;;5116267;28;19954;-44
2022/12/25 06:28:03;;;;;;;;;;;17.50;87.90;;;;;;5116235;28;19911;-43
2022/12/25 06:30:28;;;;;;;;;;;17.50;87.90;;;;;;5097902;28;19908;-43
2022/12/25 06:32:54;;;;;;;;;;;17.50;87.90;;;;;;5115808;28;19919;-45
2022/12/25 06:35:19;;;;;;;;;;;17.50;87.90;;;;;;5115825;28;19912;-42
2022/12/25 06:37:45;;;;;;;;;;;17.50;87.90;;;;;;5115946;28;19927;-43
2022/12/25 06:40:11;;;;;;;;;;;17.50;87.90;;;;;;5115737;28;20006;-41
2022/12/25 06:42:37;;;;;;;;;;;17.50;87.80;;;;;;5115951;28;19915;-43
2022/12/25 06:45:03;;;;;;;;;;;17.50;87.80;;;;;;5115816;28;19908;-43
2022/12/25 06:47:28;;;;;;;;;;;17.50;87.80;;;;;;5115482;28;19931;-44
2022/12/25 06:49:54;;;;;;;;;;;17.50;87.80;;;;;;5115431;28;19915;-44
2022/12/25 06:52:19;;;;;;;;;;;17.50;87.80;;;;;;5115332;28;19916;-42
2022/12/25 06:54:45;;;;;;;;;;;17.50;87.80;;;;;;5115903;28;19998;-42
2022/12/25 06:57:10;;;;;;;;;;;17.50;87.80;;;;;;5115388;28;19915;-43
2022/12/25 06:59:36;;;;;;;;;;;17.50;87.80;;;;;;5097536;28;19939;-44
2022/12/25 07:02:01;;;;;;;;;;;17.50;87.90;;;;;;5115416;28;19908;-44
2022/12/25 07:04:34;;;;;;;;;;;17.50;87.90;;;;;;5115515;28;19915;-43
2022/12/25 07:07:00;;;;;;;;;;;17.50;87.80;;;;;;5115565;28;20282;-45
2022/12/25 07:09:25;;;;;;;;;;;17.50;87.80;;;;;;5115125;28;19912;-42
2022/12/25 07:11:51;;;;;;;;;;;17.50;87.90;;;;;;5115138;28;19912;-42
2022/12/25 07:14:17;;;;;;;;;;;17.50;87.90;;;;;;5115536;28;19912;-43
2022/12/25 07:16:43;;;;;;;;;;;17.40;87.90;;;;;;5115250;28;20266;-42
2022/12/25 07:19:09;;;;;;;;;;;17.40;87.90;;;;;;5115183;28;19908;-43
2022/12/25 07:21:34;;;;;;;;;;;17.40;87.90;;;;;;5114823;28;19995;-43
2022/12/25 07:24:00;;;;;;;;;;;17.40;87.90;;;;;;5096889;28;19912;-43
2022/12/25 07:26:25;;;;;;;;;;;17.50;87.90;;;;;;5115007;28;19954;-43
2022/12/25 07:28:51;;;;;;;;;;;17.50;87.90;;;;;;5114931;28;19907;-42
2022/12/25 07:31:16;;;;;;;;;;;17.50;87.90;;;;;;5096627;28;19908;-43
2022/12/25 07:33:42;;;;;;;;;;;17.50;87.80;;;;;;5096733;28;19911;-43
2022/12/25 07:36:08;;;;;;;;;;;17.50;87.80;;;;;;5114663;28;19908;-42
2022/12/25 07:38:33;;;;;;;;;;;17.50;87.80;;;;;;5114879;28;19920;-44
2022/12/25 07:40:59;;;;;;;;;;;17.50;87.80;;;;;;5114813;28;19969;-42
2022/12/25 07:43:24;;;;;;;;;;;17.50;87.70;;;;;;5114513;28;19947;-42
2022/12/25 07:45:57;;;;;;;;;;;17.50;87.70;;;;;;5114517;28;19908;-44
2022/12/25 07:48:23;;;;;;;;;;;17.50;87.70;;;;;;5096577;28;19957;-45
2022/12/25 07:50:54;;;;;;;;;;;17.50;87.70;;;;;;5114641;28;19908;-45
2022/12/25 07:53:19;;;;;;;;;;;17.50;87.70;;;;;;5114611;28;20010;-44
2022/12/25 07:55:45;;;;;;;;;;;17.50;87.70;;;;;;5114327;28;20020;-43
2022/12/25 07:58:10;;;;;;;;;;;17.50;87.70;;;;;;5114327;28;19908;-46
2022/12/25 08:00:36;;;;;;;;;;;17.50;87.70;;;;;;5114910;28;19931;-42
2022/12/25 08:03:01;;;;;;;;;;;17.50;87.80;;;;;;5114615;28;20358;-43
2022/12/25 08:05:26;;;;;;;;;;;17.50;87.70;;;;;;5114332;28;20325;-44
2022/12/25 08:07:53;;;;;;;;;;;17.50;87.80;;;;;;5114512;28;19921;-43
2022/12/25 08:10:18;;;;;;;;;;;17.50;87.80;;;;;;5114409;28;19958;-43
2022/12/25 08:12:44;;;;;;;;;;;17.50;87.80;;;;;;5096103;28;19955;-45
2022/12/25 08:15:09;;;;;;;;;;;17.50;87.80;;;;;;5116783;28;19912;-46
2022/12/25 08:17:35;;;;;;;;;;;17.50;87.80;;;;;;5100407;28;20104;-44
2022/12/25 08:20:00;;;;;;;;;;;17.50;87.70;;;;;;5118352;28;19958;-42
2022/12/25 08:22:26;;;;;;;;;;;17.50;87.70;;;;;;5118363;28;19912;-43
2022/12/25 08:24:51;;;;;;;;;;;17.50;87.80;;;;;;5118299;28;20321;-44
2022/12/25 08:27:17;;;;;;;;;;;17.50;87.70;;;;;;5118127;28;19915;-42
2022/12/25 08:29:43;;;;;;;;;;;17.50;87.70;;;;;;5118179;28;19915;-42
2022/12/25 08:32:08;;;;;;;;;;;17.50;87.70;;;;;;5118040;28;19957;-42
2022/12/25 08:34:36;;;;;;;;;;;17.50;87.70;;;;;;5118531;28;20006;-43
2022/12/25 08:37:01;;;;;;;;;;;17.60;87.70;;;;;;5118119;28;19912;-43
2022/12/25 08:39:26;;;;;;;;;;;17.50;87.60;;;;;;5118112;28;19908;-42
2022/12/25 08:41:52;;;;;;;;;;;17.50;87.60;;;;;;5118110;28;19955;-43
2022/12/25 08:44:17;;;;;;;;;;;17.50;87.60;;;;;;5118121;28;19908;-43
2022/12/25 08:46:43;;;;;;;;;;;17.50;87.60;;;;;;5117785;28;20000;-43
2022/12/25 08:49:08;;;;;;;;;;;17.50;87.60;;;;;;5117752;28;19934;-45
2022/12/25 08:51:36;;;;;;;;;;;17.60;87.60;;;;;;5117958;28;19918;-44
2022/12/25 08:54:01;;;;;;;;;;;17.50;87.60;;;;;;5117837;28;19938;-42
2022/12/25 08:56:27;;;;;;;;;;;17.50;87.60;;;;;;5117691;28;19908;-42
2022/12/25 08:58:52;;;;;;;;;;;17.50;87.60;;;;;;5117602;28;19914;-42
2022/12/25 09:01:18;;;;;;;;;;;17.50;87.60;;;;;;5118085;28;19912;-44
2022/12/25 09:03:43;;;;;;;;;;;17.50;87.60;;;;;;5117804;28;20259;-43
2022/12/25 09:06:13;;;;;;;;;;;17.50;87.60;;;;;;5117704;28;19908;-44
2022/12/25 09:08:39;;;;;;;;;;;17.50;87.60;;;;;;5099451;28;19912;-42
2022/12/25 09:11:05;;;;;;;;;;;17.50;87.60;;;;;;5117251;28;19908;-43
2022/12/25 09:13:31;;;;;;;;;;;17.50;87.70;;;;;;5117276;28;19934;-44
2022/12/25 09:15:56;;;;;;;;;;;17.50;87.70;;;;;;5117250;28;20351;-43
2022/12/25 09:18:22;;;;;;;;;;;17.50;87.70;;;;;;5117556;28;19961;-43
2022/12/25 09:20:56;;;;;;;;;;;17.50;87.70;;;;;;5117452;28;19912;-42
2022/12/25 09:23:21;;;;;;;;;;;17.50;87.80;;;;;;5117123;28;19931;-42
2022/12/25 09:25:46;;;;;;;;;;;17.50;87.70;;;;;;5115503;28;19908;-43
2022/12/25 09:28:12;;;;;;;;;;;17.50;88.30;;;;;;5117055;28;19907;-45
2022/12/25 09:30:37;;;;;;;;;;;17.50;87.80;;;;;;5116977;28;19985;-42
2022/12/25 09:33:03;;;;;;;;;;;17.50;87.80;;;;;;5116840;28;19912;-42
2022/12/25 09:35:28;;;;;;;;;;;17.50;87.90;;;;;;5116857;28;20454;-44
2022/12/25 09:37:54;;;;;;;;;;;17.50;87.90;;;;;;5116569;28;19942;-43
2022/12/25 09:40:20;;;;;;;;;;;17.50;87.80;;;;;;5117069;28;19954;-44
2022/12/25 09:42:46;;;;;;;;;;;17.50;87.90;;;;;;5116758;28;19915;-43
2022/12/25 09:45:18;;;;;;;;;;;17.50;87.90;;;;;;5116569;28;19976;-45
2022/12/25 09:47:45;;;;;;;;;;;17.50;87.90;;;;;;5117422;28;20010;-44
2022/12/25 09:50:17;;;;;;;;;;;17.50;87.90;;;;;;5116976;28;19907;-43
2022/12/25 09:52:45;;;;;;;;;;;17.50;87.90;;;;;;5116371;28;20261;-43
2022/12/25 09:55:13;;;;;;;;;;;17.50;87.90;;;;;;5116664;28;20006;-43
2022/12/25 09:57:39;;;;;;;;;;;17.50;87.80;;;;;;5116633;28;19944;-44
2022/12/25 10:00:12;;;;;;;;;;;17.50;87.90;;;;;;5116393;28;19908;-43
2022/12/25 10:02:49;;;;;;;;;;;17.50;87.90;;;;;;5116970;28;19935;-42
2022/12/25 10:05:14;;;;;;;;;;;17.50;87.90;;;;;;5116693;28;19908;-44
2022/12/25 10:07:58;;;;;;;;;;;17.50;87.90;;;;;;5116581;28;19915;-43
2022/12/25 10:10:33;;;;;;;;;;;17.50;87.90;;;;;;5116419;28;19907;-45
2022/12/25 10:13:28;;;;;;;;;;;17.50;87.80;;;;;;5098019;28;19919;-42
2022/12/25 10:15:53;;;;;;;;;;;17.50;87.80;;;;;;5097825;28;19915;-42
2022/12/25 10:18:31;;;;;;;;;;;17.50;87.80;;;;;;5115996;28;20320;-42
2022/12/25 10:20:58;;;;;;;;;;;17.50;87.80;;;;;;5116296;28;19911;-46
2022/12/25 10:23:33;;;;;;;;;;;17.50;87.70;;;;;;5115921;28;19908;-43
2022/12/25 10:25:58;;;;;;;;;;;17.50;87.70;;;;;;5115873;28;19908;-43
2022/12/25 10:28:27;;;;;;;;;;;17.60;87.70;;;;;;5116119;28;19954;-42
2022/12/25 10:30:54;;;;;;;;;;;17.60;87.70;;;;;;5116392;28;19908;-42
2022/12/25 10:33:20;;;;;;;;;;;17.60;87.70;;;;;;5115641;28;20010;-42
2022/12/25 10:35:46;;;;;;;;;;;17.60;87.70;;;;;;5115976;28;19916;-47
2022/12/25 10:38:13;;;;;;;;;;;17.60;87.70;;;;;;5115725;28;19954;-45
2022/12/25 10:41:05;;;;;;;;;;;17.60;87.70;;;;;;5097513;28;20377;-43
2022/12/25 10:43:51;;;;;;;;;;;17.60;87.70;;;;;;5111689;28;20242;-46
2022/12/25 10:46:17;;;;;;;;;;;17.60;87.70;;;;;;5115724;28;19915;-44
2022/12/25 10:48:46;;;;;;;;;;;17.60;87.80;;;;;;5115404;28;19907;-47
2022/12/25 10:51:12;;;;;;;;;;;17.50;87.70;;;;;;5115641;28;19911;-44
2022/12/25 10:53:38;;;;;;;;;;;17.60;87.80;;;;;;5115480;28;19964;-43
2022/12/25 10:56:05;;;;;;;;;;;17.50;87.90;;;;;;5115824;28;19917;-42
2022/12/25 10:58:31;;;;;;;;;;;17.50;87.80;;;;;;5115504;28;20266;-43
2022/12/25 11:01:05;;;;;;;;;;;17.50;87.90;;;;;;5115257;28;19912;-44
2022/12/25 11:03:31;;;;;;;;;;;17.50;87.90;;;;;;5115419;28;19998;-46
2022/12/25 11:05:57;;;;;;;;;;;17.50;87.90;;;;;;5115755;28;20366;-42
2022/12/25 11:08:25;;;;;;;;;;;17.50;88.00;;;;;;5115332;28;19955;-45
2022/12/25 11:10:51;;;;;;;;;;;17.50;88.10;;;;;;5115070;28;19908;-43
2022/12/25 11:13:23;;;;;;;;;;;17.50;88.10;;;;;;5114971;28;19919;-47
2022/12/25 11:15:50;;;;;;;;;;;17.40;88.10;;;;;;5114953;28;20369;-43
2022/12/25 11:18:18;;;;;;;;;;;17.40;88.00;;;;;;5115257;28;20003;-42
2022/12/25 11:21:07;;;;;;;;;;;17.50;88.10;;;;;;5115131;28;19907;-42
2022/12/25 11:23:32;;;;;;;;;;;17.40;88.10;;;;;;5113646;28;19911;-43
2022/12/25 11:26:02;;;;;;;;;;;17.40;88.10;;;;;;5115039;28;19961;-44
2022/12/25 11:28:29;;;;;;;;;;;17.40;88.10;;;;;;5114915;28;19912;-43
2022/12/25 11:31:04;;;;;;;;;;;17.40;88.10;;;;;;5114949;28;19907;-43
2022/12/25 11:33:38;;;;;;;;;;;17.40;88.20;;;;;;5114867;28;19912;-46
2022/12/25 11:36:11;;;;;;;;;;;17.40;88.20;;;;;;5114421;28;20283;-44
2022/12/25 11:38:37;;;;;;;;;;;17.40;88.20;;;;;;5115009;28;20265;-44
2022/12/25 11:41:03;;;;;;;;;;;17.40;88.20;;;;;;5114599;28;19908;-42
2022/12/25 11:43:32;;;;;;;;;;;17.40;88.20;;;;;;5114710;28;19915;-42
2022/12/25 11:46:16;;;;;;;;;;;17.40;88.30;;;;;;5115074;28;19907;-42
2022/12/25 11:48:45;;;;;;;;;;;17.40;88.20;;;;;;5113626;28;20298;-46
2022/12/25 11:51:11;;;;;;;;;;;17.40;88.20;;;;;;5114666;28;20300;-44
2022/12/25 11:53:40;;;;;;;;;;;17.30;88.20;;;;;;5114294;28;19965;-44
2022/12/25 11:56:07;;;;;;;;;;;17.40;88.30;;;;;;5114120;28;20243;-42
2022/12/25 11:58:38;;;;;;;;;;;17.40;88.30;;;;;;5096301;28;19958;-44
2022/12/25 12:01:06;;;;;;;;;;;17.40;88.30;;;;;;5096239;28;19994;-44
2022/12/25 12:03:34;;;;;;;;;;;17.40;88.20;;;;;;5114515;28;19907;-44
2022/12/25 12:06:21;;;;;;;;;;;17.40;88.20;;;;;;5114501;28;20047;-44
2022/12/25 12:08:50;;;;;;;;;;;17.40;88.10;;;;;;5114266;28;20010;-45
2022/12/25 12:11:22;;;;;;;;;;;17.50;88.10;;;;;;5114344;28;20243;-41
2022/12/25 12:13:48;;;;;;;;;;;17.50;88.10;;;;;;5114288;28;19911;-44
2022/12/25 12:16:13;;;;;;;;;;;17.50;88.00;;;;;;5114217;28;19962;-44
2022/12/25 12:18:40;;;;;;;;;;;17.50;88.10;;;;;;5113826;28;19911;-42
2022/12/25 12:21:28;;;;;;;;;;;17.50;88.00;;;;;;5114086;28;19912;-42
2022/12/25 12:23:54;;;;;;;;;;;17.50;88.10;;;;;;5113944;28;20347;-42
2022/12/25 12:26:21;;;;;;;;;;;17.50;88.00;;;;;;5113978;28;19908;-43
2022/12/25 12:28:47;;;;;;;;;;;17.50;88.10;;;;;;5113894;28;20002;-43
2022/12/25 12:31:13;;;;;;;;;;;17.50;88.10;;;;;;5113870;28;19908;-42
2022/12/25 12:33:51;;;;;;;;;;;17.50;88.10;;;;;;5113883;28;19912;-43
2022/12/25 12:36:18;;;;;;;;;;;17.50;88.20;;;;;;5114108;28;20333;-43
2022/12/25 12:38:43;;;;;;;;;;;17.50;88.10;;;;;;5114202;28;19920;-43
2022/12/25 12:41:11;;;;;;;;;;;17.50;88.20;;;;;;5114074;28;19908;-44
2022/12/25 12:43:47;;;;;;;;;;;17.40;88.10;;;;;;5114280;28;20003;-44
2022/12/25 12:46:18;;;;;;;;;;;17.40;88.20;;;;;;5113771;28;19908;-44
2022/12/25 12:48:47;;;;;;;;;;;17.40;88.30;;;;;;5113063;28;21436;-44
2022/12/25 12:51:29;;;;;;;;;;;17.40;88.30;;;;;;5114035;28;19907;-43
2022/12/25 12:54:10;;;;;;;;;;;17.40;88.30;;;;;;5113530;28;20294;-44
2022/12/25 12:56:36;;;;;;;;;;;17.40;88.40;;;;;;5113587;28;20373;-43
2022/12/25 12:59:01;;;;;;;;;;;17.30;88.30;;;;;;5114015;28;19908;-43
2022/12/25 13:01:38;;;;;;;;;;;17.30;88.40;;;;;;5116779;28;19961;-43
2022/12/25 13:04:03;;;;;;;;;;;17.30;88.40;;;;;;5118246;28;19907;-42
2022/12/25 13:06:49;;;;;;;;;;;17.40;88.40;;;;;;5117365;28;19907;-43
2022/12/25 13:09:24;;;;;;;;;;;17.30;88.40;;;;;;5116906;28;20003;-44
2022/12/25 13:11:49;;;;;;;;;;;17.30;88.40;;;;;;5117247;28;20278;-47
2022/12/25 13:14:19;;;;;;;;;;;17.40;88.40;;;;;;5117292;28;19912;-43
2022/12/25 13:16:47;;;;;;;;;;;17.30;88.30;;;;;;5117198;28;19908;-44
2022/12/25 13:19:15;;;;;;;;;;;17.40;88.40;;;;;;5117525;28;19953;-43
2022/12/25 13:21:50;;;;;;;;;;;17.40;88.30;;;;;;5117321;28;20006;-45
2022/12/25 13:24:18;;;;;;;;;;;17.40;88.30;;;;;;5117120;28;20424;-44
2022/12/25 13:26:43;;;;;;;;;;;17.40;88.20;;;;;;5117339;28;19915;-44
2022/12/25 13:29:41;;;;;;;;;;;17.40;88.30;;;;;;5117020;28;19908;-44
2022/12/25 13:32:15;;;;;;;;;;;17.40;88.20;;;;;;5071680;28;19918;-44
2022/12/25 13:34:41;;;;;;;;;;;17.40;88.20;;;;;;5117296;28;19955;-44
2022/12/25 13:37:08;;;;;;;;;;;17.40;88.20;;;;;;5116958;28;19915;-42
2022/12/25 13:39:35;;;;;;;;;;;17.40;88.20;;;;;;5117269;28;19912;-44
2022/12/25 13:42:10;;;;;;;;;;;17.40;88.20;;;;;;5116698;28;20056;-42
2022/12/25 13:44:38;;;;;;;;;;;17.40;88.20;;;;;;5117061;28;19915;-43
2022/12/25 13:47:15;;;;;;;;;;;17.40;88.20;;;;;;5116684;28;19907;-42
2022/12/25 13:49:41;;;;;;;;;;;17.40;88.20;;;;;;5116516;28;19961;-45
2022/12/25 13:52:11;;;;;;;;;;;17.40;88.20;;;;;;5116830;28;19916;-44
2022/12/25 13:54:36;;;;;;;;;;;17.40;88.30;;;;;;5116821;28;19923;-42
2022/12/25 13:57:06;;;;;;;;;;;17.40;88.30;;;;;;5116490;28;19908;-44
2022/12/25 13:59:31;;;;;;;;;;;17.40;88.30;;;;;;5116416;28;20046;-45
2022/12/25 14:01:58;;;;;;;;;;;17.40;88.30;;;;;;5098463;28;19943;-44
2022/12/25 14:04:24;;;;;;;;;;;17.40;88.30;;;;;;5116139;28;19954;-43
2022/12/25 14:06:51;;;;;;;;;;;17.40;88.40;;;;;;5116631;28;20309;-43
2022/12/25 14:09:17;;;;;;;;;;;17.40;88.30;;;;;;5116571;28;19999;-44
2022/12/25 14:11:47;;;;;;;;;;;17.40;88.40;;;;;;5115089;28;19912;-43
2022/12/25 14:14:20;;;;;;;;;;;17.30;88.30;;;;;;5116148;28;19918;-44
2022/12/25 14:16:48;;;;;;;;;;;17.30;88.30;;;;;;5115994;28;19911;-43
2022/12/25 14:19:25;;;;;;;;;;;17.30;88.30;;;;;;5116313;28;19908;-44
2022/12/25 14:22:01;;;;;;;;;;;17.40;88.40;;;;;;5116289;28;20403;-45
2022/12/25 14:24:28;;;;;;;;;;;17.30;88.30;;;;;;5116410;28;19961;-43
2022/12/25 14:26:58;;;;;;;;;;;17.30;88.40;;;;;;5116177;28;19947;-42
2022/12/25 14:29:31;;;;;;;;;;;17.30;88.30;;;;;;5116124;28;19908;-43
2022/12/25 14:31:59;;;;;;;;;;;17.30;88.40;;;;;;5116136;28;19969;-42
2022/12/25 14:34:26;;;;;;;;;;;17.40;88.40;;;;;;5116059;28;19912;-44
2022/12/25 14:36:52;;;;;;;;;;;17.40;88.30;;;;;;5115700;28;20380;-46
2022/12/25 14:39:24;;;;;;;;;;;17.40;88.40;;;;;;5115439;28;19923;-42
2022/12/25 14:41:52;;;;;;;;;;;17.40;88.30;;;;;;5115528;28;19915;-42
2022/12/25 14:44:24;;;;;;;;;;;17.40;88.30;;;;;;5115424;28;19908;-43
2022/12/25 14:46:49;;;;;;;;;;;17.40;88.30;;;;;;5115796;28;20007;-42
2022/12/25 14:49:22;;;;;;;;;;;17.40;88.20;;;;;;5115811;28;19951;-42
2022/12/25 14:51:48;;;;;;;;;;;17.40;88.20;;;;;;5115620;28;19966;-43
2022/12/25 14:54:21;;;;;;;;;;;17.40;88.20;;;;;;5115367;28;20017;-43
2022/12/25 14:56:47;;;;;;;;;;;17.40;88.20;;;;;;5115447;28;20270;-45
2022/12/25 14:59:16;;;;;;;;;;;17.40;88.20;;;;;;5115337;28;19908;-43
2022/12/25 15:01:42;;;;;;;;;;;17.40;88.20;;;;;;5115447;28;19908;-44
2022/12/25 15:04:10;;;;;;;;;;;17.40;88.10;;;;;;5115298;28;19908;-42
2022/12/25 15:06:37;;;;;;;;;;;17.40;88.10;;;;;;5115087;28;20266;-43
2022/12/25 15:09:08;;;;;;;;;;;17.40;88.20;;;;;;5115571;28;19907;-42
2022/12/25 15:11:33;;;;;;;;;;;17.40;88.20;;;;;;5115290;28;19914;-43
2022/12/25 15:13:59;;;;;;;;;;;17.40;88.20;;;;;;5115314;28;20057;-43
2022/12/25 15:16:26;;;;;;;;;;;17.40;88.10;;;;;;5115017;28;19930;-43
2022/12/25 15:18:52;;;;;;;;;;;17.40;88.10;;;;;;5115175;28;19914;-41
2022/12/25 15:21:25;;;;;;;;;;;17.40;88.70;;;;;;5096951;28;20409;-42
2022/12/25 15:23:52;;;;;;;;;;;17.40;88.10;;;;;;5115074;28;19940;-45
2022/12/25 15:26:17;;;;;;;;;;;17.40;88.20;;;;;;5115137;28;19908;-42
2022/12/25 15:28:43;;;;;;;;;;;17.40;88.10;;;;;;5114641;28;19908;-41
2022/12/25 15:31:23;;;;;;;;;;;17.40;88.10;;;;;;5114966;28;19908;-43
2022/12/25 15:33:49;;;;;;;;;;;17.40;88.10;;;;;;5114551;28;20413;-44
2022/12/25 15:36:15;;;;;;;;;;;17.40;88.20;;;;;;5114501;28;19974;-42
2022/12/25 15:38:40;;;;;;;;;;;17.40;88.10;;;;;;5115024;28;19919;-44
2022/12/25 15:44:12;;;;;;;;;;;17.40;88.20;;;;;;5114846;28;19961;-43
2022/12/25 15:46:37;;;;;;;;;;;17.40;88.70;;;;;;5114718;28;19908;-42
2022/12/25 15:49:03;;;;;;;;;;;17.40;88.20;;;;;;5114758;28;19915;-46
2022/12/25 15:51:28;;;;;;;;;;;17.40;88.20;;;;;;5114620;28;19915;-43
2022/12/25 15:53:54;;;;;;;;;;;17.40;88.20;;;;;;5114305;28;19935;-43
2022/12/25 15:56:20;;;;;;;;;;;17.40;88.20;;;;;;5114675;28;20030;-42
2022/12/25 15:58:45;;;;;;;;;;;17.40;88.20;;;;;;5114457;28;19907;-43
2022/12/25 16:01:14;;;;;;;;;;;17.40;88.10;;;;;;5114475;28;19994;-44
2022/12/25 16:03:40;;;;;;;;;;;17.40;88.10;;;;;;5114137;28;19912;-43